This is the latest recevied weather packets stored in our database for station/object KR4BRU. If no packets are shown the sender has not sent any weather packets the latest 10 day(s).
| Time | Temp. | Humidity | Pressure | Rain* | Wind** | Luminosity | Snow |
|---|---|---|---|---|---|---|---|
| 1777904671 | 19.44° C | 44% | 1013.9 hPa | 0 mm | - | 452 W/m² | - |
| 1777904070 | 18.89° C | 46% | 1014.3 hPa | 0 mm | - | 554 W/m² | - |
| 1777903469 | 18.33° C | 50% | 1014.2 hPa | 0 mm | - | 488 W/m² | - |
| 1777902868 | 17.78° C | 53% | 1014.4 hPa | 0 mm | - | 499 W/m² | - |
| 1777902268 | 16.67° C | 54% | 1014.5 hPa | 0 mm | - | 459 W/m² | - |
| 1777901664 | 17.22° C | 51% | 1014.6 hPa | 0 mm | - | 388 W/m² | - |
| 1777901064 | 16.11° C | 56% | 1014.6 hPa | 0 mm | - | 351 W/m² | - |
| 1777900464 | 16.11° C | 57% | 1014.4 hPa | 0 mm | - | 340 W/m² | - |
| 1777899863 | 15° C | 60% | 1014.4 hPa | 0 mm | - | 308 W/m² | - |
| 1777899263 | 14.44° C | 67% | 1014.4 hPa | 0 mm | - | 209 W/m² | - |
| 1777898658 | 13.33° C | 70% | 1014.4 hPa | 0 mm | - | 49 W/m² | - |
| 1777898053 | 12.78° C | 72% | 1014.4 hPa | 0 mm | - | 48 W/m² | - |
| 1777897451 | 12.22° C | 72% | 1014.2 hPa | 0 mm | - | 40 W/m² | - |
| 1777896849 | 11.67° C | 75% | 1014.2 hPa | 0 mm | - | 37 W/m² | - |
| 1777896249 | 11.11° C | 82% | 1014.2 hPa | 0 mm | - | 33 W/m² | - |
| 1777895645 | 10.56° C | 88% | 1014.3 hPa | 0 mm | - | 29 W/m² | - |
| 1777895040 | 9.44° C | 89% | 1014 hPa | 0 mm | - | 27 W/m² | - |
| 1777894439 | 8.89° C | 89% | 1014.1 hPa | 0 mm | - | 25 W/m² | - |
| 1777893839 | 8.33° C | 88% | 1013.8 hPa | 0 mm | - | 18 W/m² | - |
| 1777893238 | 8.33° C | 88% | 1013.8 hPa | 0 mm | - | 13 W/m² | - |
| 1777892637 | 8.33° C | 88% | 1013.8 hPa | 0 mm | - | 8 W/m² | - |
| 1777892035 | 8.33° C | 88% | 1013.6 hPa | 0 mm | - | 4 W/m² | - |
| 1777891435 | 8.33° C | 88% | 1013.7 hPa | 0 mm | - | 1 W/m² | - |
| 1777890831 | 8.33° C | 87% | 1013.6 hPa | 0 mm | - | 0 W/m² | - |
| 1777890229 | 8.33° C | 87% | 1013.7 hPa | 0 mm | - | 0 W/m² | - |
* Rain latest hour (hover to see other rain measurements)
** Current wind speed in m/s (hover to see current wind gust speed)